sensor_id;sensor_type;location;lat;lon;timestamp;P1;durP1;ratioP1;P2;durP2;ratioP2
50605;SDS011;36557;53.572;10.170;2023-05-07T00:00:57;9.55;;;6.45;;
50605;SDS011;36557;53.572;10.170;2023-05-07T00:03:24;9.70;;;5.50;;
50605;SDS011;36557;53.572;10.170;2023-05-07T00:05:51;8.40;;;5.97;;
50605;SDS011;36557;53.572;10.170;2023-05-07T00:08:18;8.10;;;6.00;;
50605;SDS011;36557;53.572;10.170;2023-05-07T00:10:45;9.23;;;5.72;;
50605;SDS011;36557;53.572;10.170;2023-05-07T00:13:11;8.90;;;5.95;;
50605;SDS011;36557;53.572;10.170;2023-05-07T00:15:37;10.73;;;6.82;;
50605;SDS011;36557;53.572;10.170;2023-05-07T00:18:03;9.18;;;6.10;;
50605;SDS011;36557;53.572;10.170;2023-05-07T00:20:29;10.55;;;6.38;;
50605;SDS011;36557;53.572;10.170;2023-05-07T00:22:55;8.77;;;6.55;;
50605;SDS011;36557;53.572;10.170;2023-05-07T00:25:22;11.68;;;6.95;;
50605;SDS011;36557;53.572;10.170;2023-05-07T00:27:48;8.93;;;5.80;;
50605;SDS011;36557;53.572;10.170;2023-05-07T00:30:14;11.32;;;6.82;;
50605;SDS011;36557;53.572;10.170;2023-05-07T00:32:40;11.23;;;6.70;;
50605;SDS011;36557;53.572;10.170;2023-05-07T00:35:06;10.25;;;6.65;;
50605;SDS011;36557;53.572;10.170;2023-05-07T00:37:32;11.57;;;6.72;;
50605;SDS011;36557;53.572;10.170;2023-05-07T00:39:58;10.73;;;6.82;;
50605;SDS011;36557;53.572;10.170;2023-05-07T00:42:24;12.18;;;7.30;;
50605;SDS011;36557;53.572;10.170;2023-05-07T00:44:50;10.13;;;6.68;;
50605;SDS011;36557;53.572;10.170;2023-05-07T00:47:16;9.52;;;5.88;;
50605;SDS011;36557;53.572;10.170;2023-05-07T00:49:43;8.93;;;6.28;;
50605;SDS011;36557;53.572;10.170;2023-05-07T00:52:13;10.77;;;6.38;;
50605;SDS011;36557;53.572;10.170;2023-05-07T00:54:40;9.88;;;6.57;;
50605;SDS011;36557;53.572;10.170;2023-05-07T00:57:06;10.60;;;6.93;;
50605;SDS011;36557;53.572;10.170;2023-05-07T00:59:32;12.05;;;7.40;;
50605;SDS011;36557;53.572;10.170;2023-05-07T01:01:59;9.55;;;6.57;;
50605;SDS011;36557;53.572;10.170;2023-05-07T01:04:25;10.00;;;6.30;;
50605;SDS011;36557;53.572;10.170;2023-05-07T01:06:52;10.05;;;6.38;;
50605;SDS011;36557;53.572;10.170;2023-05-07T01:09:19;9.90;;;6.38;;
50605;SDS011;36557;53.572;10.170;2023-05-07T01:11:45;7.35;;;4.72;;
50605;SDS011;36557;53.572;10.170;2023-05-07T01:14:12;10.55;;;6.30;;
50605;SDS011;36557;53.572;10.170;2023-05-07T01:16:38;9.73;;;5.93;;
50605;SDS011;36557;53.572;10.170;2023-05-07T01:19:05;9.63;;;5.97;;
50605;SDS011;36557;53.572;10.170;2023-05-07T01:21:32;11.60;;;6.63;;
50605;SDS011;36557;53.572;10.170;2023-05-07T01:23:59;10.90;;;6.70;;
50605;SDS011;36557;53.572;10.170;2023-05-07T01:26:26;8.73;;;5.18;;
50605;SDS011;36557;53.572;10.170;2023-05-07T01:28:52;8.85;;;5.68;;
50605;SDS011;36557;53.572;10.170;2023-05-07T01:31:18;9.57;;;5.93;;
50605;SDS011;36557;53.572;10.170;2023-05-07T01:33:44;9.05;;;6.55;;
50605;SDS011;36557;53.572;10.170;2023-05-07T01:36:11;8.70;;;5.50;;
50605;SDS011;36557;53.572;10.170;2023-05-07T01:38:37;10.63;;;7.03;;
50605;SDS011;36557;53.572;10.170;2023-05-07T01:41:05;9.68;;;6.22;;
50605;SDS011;36557;53.572;10.170;2023-05-07T01:43:32;8.40;;;6.13;;
50605;SDS011;36557;53.572;10.170;2023-05-07T01:45:58;8.43;;;5.80;;
50605;SDS011;36557;53.572;10.170;2023-05-07T01:48:24;9.05;;;5.60;;
50605;SDS011;36557;53.572;10.170;2023-05-07T01:50:51;8.88;;;5.90;;
50605;SDS011;36557;53.572;10.170;2023-05-07T01:53:17;9.38;;;6.15;;
50605;SDS011;36557;53.572;10.170;2023-05-07T01:55:43;10.15;;;6.13;;
50605;SDS011;36557;53.572;10.170;2023-05-07T01:58:10;7.70;;;5.53;;
50605;SDS011;36557;53.572;10.170;2023-05-07T02:00:36;9.10;;;5.72;;
50605;SDS011;36557;53.572;10.170;2023-05-07T02:03:02;10.13;;;5.88;;
50605;SDS011;36557;53.572;10.170;2023-05-07T02:05:28;7.47;;;5.15;;
50605;SDS011;36557;53.572;10.170;2023-05-07T02:07:54;9.43;;;5.78;;
50605;SDS011;36557;53.572;10.170;2023-05-07T02:10:20;9.00;;;5.57;;
50605;SDS011;36557;53.572;10.170;2023-05-07T02:12:46;10.35;;;6.18;;
50605;SDS011;36557;53.572;10.170;2023-05-07T02:15:12;7.43;;;5.50;;
50605;SDS011;36557;53.572;10.170;2023-05-07T02:20:24;10.45;;;4.97;;
50605;SDS011;36557;53.572;10.170;2023-05-07T02:22:50;8.95;;;5.88;;
50605;SDS011;36557;53.572;10.170;2023-05-07T02:25:16;7.45;;;5.20;;
50605;SDS011;36557;53.572;10.170;2023-05-07T02:27:42;8.13;;;4.70;;
50605;SDS011;36557;53.572;10.170;2023-05-07T02:30:08;10.43;;;6.50;;
50605;SDS011;36557;53.572;10.170;2023-05-07T02:32:34;7.88;;;5.68;;
50605;SDS011;36557;53.572;10.170;2023-05-07T02:35:00;8.00;;;5.30;;
50605;SDS011;36557;53.572;10.170;2023-05-07T02:37:26;10.00;;;6.40;;
50605;SDS011;36557;53.572;10.170;2023-05-07T02:39:52;8.95;;;5.78;;
50605;SDS011;36557;53.572;10.170;2023-05-07T02:42:18;10.52;;;6.15;;
50605;SDS011;36557;53.572;10.170;2023-05-07T02:44:44;8.13;;;5.75;;
50605;SDS011;36557;53.572;10.170;2023-05-07T02:47:10;7.60;;;5.50;;
50605;SDS011;36557;53.572;10.170;2023-05-07T02:49:38;8.05;;;5.60;;
50605;SDS011;36557;53.572;10.170;2023-05-07T02:52:04;8.23;;;5.50;;
50605;SDS011;36557;53.572;10.170;2023-05-07T02:54:30;8.95;;;5.25;;
50605;SDS011;36557;53.572;10.170;2023-05-07T02:56:56;8.68;;;5.30;;
50605;SDS011;36557;53.572;10.170;2023-05-07T02:59:23;8.75;;;5.68;;
50605;SDS011;36557;53.572;10.170;2023-05-07T03:01:50;8.07;;;5.75;;
50605;SDS011;36557;53.572;10.170;2023-05-07T03:04:16;9.00;;;5.95;;
50605;SDS011;36557;53.572;10.170;2023-05-07T03:06:42;9.00;;;5.70;;
50605;SDS011;36557;53.572;10.170;2023-05-07T03:09:08;8.32;;;5.82;;
50605;SDS011;36557;53.572;10.170;2023-05-07T03:11:34;9.00;;;6.38;;
50605;SDS011;36557;53.572;10.170;2023-05-07T03:14:01;9.45;;;6.03;;
50605;SDS011;36557;53.572;10.170;2023-05-07T03:16:27;7.72;;;5.38;;
50605;SDS011;36557;53.572;10.170;2023-05-07T03:18:53;8.88;;;5.40;;
50605;SDS011;36557;53.572;10.170;2023-05-07T03:21:19;8.88;;;5.68;;
50605;SDS011;36557;53.572;10.170;2023-05-07T03:23:45;8.95;;;5.97;;
50605;SDS011;36557;53.572;10.170;2023-05-07T03:26:11;6.32;;;4.45;;
50605;SDS011;36557;53.572;10.170;2023-05-07T03:28:37;8.23;;;6.30;;
50605;SDS011;36557;53.572;10.170;2023-05-07T03:31:03;8.18;;;5.95;;
50605;SDS011;36557;53.572;10.170;2023-05-07T03:33:30;8.30;;;5.57;;
50605;SDS011;36557;53.572;10.170;2023-05-07T03:35:56;9.65;;;5.38;;
50605;SDS011;36557;53.572;10.170;2023-05-07T03:38:22;8.70;;;5.93;;
50605;SDS011;36557;53.572;10.170;2023-05-07T03:40:48;8.68;;;6.22;;
50605;SDS011;36557;53.572;10.170;2023-05-07T03:43:14;9.45;;;6.32;;
50605;SDS011;36557;53.572;10.170;2023-05-07T03:45:40;7.95;;;5.90;;
50605;SDS011;36557;53.572;10.170;2023-05-07T03:50:42;9.27;;;6.40;;
50605;SDS011;36557;53.572;10.170;2023-05-07T03:53:08;8.85;;;5.95;;
50605;SDS011;36557;53.572;10.170;2023-05-07T03:55:34;8.15;;;4.97;;
50605;SDS011;36557;53.572;10.170;2023-05-07T03:58:00;7.70;;;5.07;;
50605;SDS011;36557;53.572;10.170;2023-05-07T04:00:26;9.75;;;5.57;;
50605;SDS011;36557;53.572;10.170;2023-05-07T04:02:52;9.50;;;5.47;;
50605;SDS011;36557;53.572;10.170;2023-05-07T04:05:18;10.98;;;5.38;;
50605;SDS011;36557;53.572;10.170;2023-05-07T04:07:44;7.60;;;5.50;;
50605;SDS011;36557;53.572;10.170;2023-05-07T04:10:11;9.23;;;5.63;;
50605;SDS011;36557;53.572;10.170;2023-05-07T04:12:38;8.13;;;5.50;;
50605;SDS011;36557;53.572;10.170;2023-05-07T04:15:04;8.98;;;5.78;;
50605;SDS011;36557;53.572;10.170;2023-05-07T04:17:30;9.77;;;6.00;;
50605;SDS011;36557;53.572;10.170;2023-05-07T04:19:56;8.60;;;5.57;;
50605;SDS011;36557;53.572;10.170;2023-05-07T04:22:22;8.68;;;5.88;;
50605;SDS011;36557;53.572;10.170;2023-05-07T04:24:48;7.97;;;5.07;;
50605;SDS011;36557;53.572;10.170;2023-05-07T04:27:14;8.43;;;5.38;;
50605;SDS011;36557;53.572;10.170;2023-05-07T04:29:40;8.32;;;6.13;;
50605;SDS011;36557;53.572;10.170;2023-05-07T04:32:08;8.95;;;5.88;;
50605;SDS011;36557;53.572;10.170;2023-05-07T04:34:34;9.55;;;6.05;;
50605;SDS011;36557;53.572;10.170;2023-05-07T04:37:00;10.27;;;5.95;;
50605;SDS011;36557;53.572;10.170;2023-05-07T04:39:26;8.27;;;5.65;;
50605;SDS011;36557;53.572;10.170;2023-05-07T04:41:52;9.52;;;5.00;;
50605;SDS011;36557;53.572;10.170;2023-05-07T04:44:18;7.78;;;4.80;;
50605;SDS011;36557;53.572;10.170;2023-05-07T04:46:44;8.25;;;4.82;;
50605;SDS011;36557;53.572;10.170;2023-05-07T04:49:10;8.85;;;5.40;;
50605;SDS011;36557;53.572;10.170;2023-05-07T04:51:36;6.72;;;4.50;;
50605;SDS011;36557;53.572;10.170;2023-05-07T04:54:03;7.93;;;4.75;;
50605;SDS011;36557;53.572;10.170;2023-05-07T04:56:29;9.43;;;5.13;;
50605;SDS011;36557;53.572;10.170;2023-05-07T04:58:55;6.60;;;4.90;;
50605;SDS011;36557;53.572;10.170;2023-05-07T05:01:21;7.35;;;4.32;;
50605;SDS011;36557;53.572;10.170;2023-05-07T05:03:47;7.53;;;5.00;;
50605;SDS011;36557;53.572;10.170;2023-05-07T05:06:13;7.38;;;5.00;;
50605;SDS011;36557;53.572;10.170;2023-05-07T05:08:39;7.57;;;4.93;;
50605;SDS011;36557;53.572;10.170;2023-05-07T05:11:05;8.18;;;4.63;;
50605;SDS011;36557;53.572;10.170;2023-05-07T05:13:32;7.88;;;4.85;;
50605;SDS011;36557;53.572;10.170;2023-05-07T05:15:58;7.60;;;4.53;;
50605;SDS011;36557;53.572;10.170;2023-05-07T05:18:24;9.88;;;5.50;;
50605;SDS011;36557;53.572;10.170;2023-05-07T05:20:51;8.00;;;5.28;;
50605;SDS011;36557;53.572;10.170;2023-05-07T05:23:17;8.57;;;5.50;;
50605;SDS011;36557;53.572;10.170;2023-05-07T05:25:43;6.72;;;4.28;;
50605;SDS011;36557;53.572;10.170;2023-05-07T05:28:09;6.72;;;4.82;;
50605;SDS011;36557;53.572;10.170;2023-05-07T05:30:35;7.65;;;4.53;;
50605;SDS011;36557;53.572;10.170;2023-05-07T05:33:01;10.00;;;6.63;;
50605;SDS011;36557;53.572;10.170;2023-05-07T05:35:27;8.30;;;5.22;;
50605;SDS011;36557;53.572;10.170;2023-05-07T05:37:53;7.05;;;4.47;;
50605;SDS011;36557;53.572;10.170;2023-05-07T05:40:19;8.55;;;5.18;;
50605;SDS011;36557;53.572;10.170;2023-05-07T05:42:45;9.00;;;5.35;;
50605;SDS011;36557;53.572;10.170;2023-05-07T05:45:11;7.13;;;4.55;;
50605;SDS011;36557;53.572;10.170;2023-05-07T05:47:37;6.95;;;4.80;;
50605;SDS011;36557;53.572;10.170;2023-05-07T05:50:05;8.20;;;4.80;;
50605;SDS011;36557;53.572;10.170;2023-05-07T05:52:31;7.90;;;5.38;;
50605;SDS011;36557;53.572;10.170;2023-05-07T05:54:57;7.57;;;5.03;;
50605;SDS011;36557;53.572;10.170;2023-05-07T05:57:23;7.72;;;5.28;;
50605;SDS011;36557;53.572;10.170;2023-05-07T05:59:49;8.50;;;4.97;;
50605;SDS011;36557;53.572;10.170;2023-05-07T06:02:16;8.48;;;5.53;;
50605;SDS011;36557;53.572;10.170;2023-05-07T06:04:42;7.53;;;5.00;;
50605;SDS011;36557;53.572;10.170;2023-05-07T06:07:08;6.45;;;4.85;;
50605;SDS011;36557;53.572;10.170;2023-05-07T06:09:34;8.35;;;4.95;;
50605;SDS011;36557;53.572;10.170;2023-05-07T06:12:00;7.70;;;5.38;;
50605;SDS011;36557;53.572;10.170;2023-05-07T06:14:26;8.18;;;4.85;;
50605;SDS011;36557;53.572;10.170;2023-05-07T06:16:52;6.95;;;4.75;;
50605;SDS011;36557;53.572;10.170;2023-05-07T06:19:18;6.50;;;4.55;;
50605;SDS011;36557;53.572;10.170;2023-05-07T06:21:48;6.85;;;4.65;;
50605;SDS011;36557;53.572;10.170;2023-05-07T06:24:14;6.03;;;4.15;;
50605;SDS011;36557;53.572;10.170;2023-05-07T06:26:40;6.40;;;4.90;;
50605;SDS011;36557;53.572;10.170;2023-05-07T06:29:06;6.53;;;4.00;;
50605;SDS011;36557;53.572;10.170;2023-05-07T06:31:32;7.57;;;4.97;;
50605;SDS011;36557;53.572;10.170;2023-05-07T06:33:58;7.22;;;4.90;;
50605;SDS011;36557;53.572;10.170;2023-05-07T06:36:24;7.57;;;4.95;;
50605;SDS011;36557;53.572;10.170;2023-05-07T06:38:51;6.70;;;4.18;;
50605;SDS011;36557;53.572;10.170;2023-05-07T06:41:17;5.90;;;4.13;;
50605;SDS011;36557;53.572;10.170;2023-05-07T06:43:43;6.45;;;4.40;;
50605;SDS011;36557;53.572;10.170;2023-05-07T06:46:09;5.80;;;4.15;;
50605;SDS011;36557;53.572;10.170;2023-05-07T06:48:35;9.48;;;6.50;;
50605;SDS011;36557;53.572;10.170;2023-05-07T06:51:01;8.32;;;4.80;;
50605;SDS011;36557;53.572;10.170;2023-05-07T06:53:27;7.97;;;5.25;;
50605;SDS011;36557;53.572;10.170;2023-05-07T06:55:55;24.50;;;14.05;;
50605;SDS011;36557;53.572;10.170;2023-05-07T06:58:21;14.23;;;8.23;;
50605;SDS011;36557;53.572;10.170;2023-05-07T07:00:47;10.82;;;5.55;;
50605;SDS011;36557;53.572;10.170;2023-05-07T07:03:13;11.85;;;7.25;;
50605;SDS011;36557;53.572;10.170;2023-05-07T07:05:42;11.32;;;6.68;;
50605;SDS011;36557;53.572;10.170;2023-05-07T07:08:09;10.48;;;4.20;;
50605;SDS011;36557;53.572;10.170;2023-05-07T07:10:35;7.72;;;4.45;;
50605;SDS011;36557;53.572;10.170;2023-05-07T07:13:01;9.68;;;5.85;;
50605;SDS011;36557;53.572;10.170;2023-05-07T07:15:27;11.48;;;7.45;;
50605;SDS011;36557;53.572;10.170;2023-05-07T07:17:53;6.15;;;4.60;;
50605;SDS011;36557;53.572;10.170;2023-05-07T07:20:19;5.70;;;4.10;;
50605;SDS011;36557;53.572;10.170;2023-05-07T07:22:45;6.22;;;3.95;;
50605;SDS011;36557;53.572;10.170;2023-05-07T07:25:11;5.55;;;3.97;;
50605;SDS011;36557;53.572;10.170;2023-05-07T07:27:37;8.43;;;4.00;;
50605;SDS011;36557;53.572;10.170;2023-05-07T07:30:05;6.78;;;3.42;;
50605;SDS011;36557;53.572;10.170;2023-05-07T07:32:31;4.85;;;3.50;;
50605;SDS011;36557;53.572;10.170;2023-05-07T07:34:58;7.38;;;4.05;;
50605;SDS011;36557;53.572;10.170;2023-05-07T07:37:24;6.10;;;4.10;;
50605;SDS011;36557;53.572;10.170;2023-05-07T07:39:50;6.32;;;4.57;;
50605;SDS011;36557;53.572;10.170;2023-05-07T07:42:16;5.57;;;3.10;;
50605;SDS011;36557;53.572;10.170;2023-05-07T07:44:43;5.65;;;3.92;;
50605;SDS011;36557;53.572;10.170;2023-05-07T07:47:09;4.57;;;2.95;;
50605;SDS011;36557;53.572;10.170;2023-05-07T07:49:36;7.68;;;3.83;;
50605;SDS011;36557;53.572;10.170;2023-05-07T07:52:02;4.60;;;3.90;;
50605;SDS011;36557;53.572;10.170;2023-05-07T07:54:28;4.35;;;3.17;;
50605;SDS011;36557;53.572;10.170;2023-05-07T07:56:54;5.55;;;3.85;;
50605;SDS011;36557;53.572;10.170;2023-05-07T07:59:20;5.10;;;3.70;;
50605;SDS011;36557;53.572;10.170;2023-05-07T08:01:46;5.20;;;3.83;;
50605;SDS011;36557;53.572;10.170;2023-05-07T08:04:15;5.47;;;3.78;;
50605;SDS011;36557;53.572;10.170;2023-05-07T08:06:41;5.03;;;3.45;;
50605;SDS011;36557;53.572;10.170;2023-05-07T08:09:07;5.78;;;4.20;;
50605;SDS011;36557;53.572;10.170;2023-05-07T08:11:33;5.20;;;3.63;;
50605;SDS011;36557;53.572;10.170;2023-05-07T08:13:59;5.95;;;4.15;;
50605;SDS011;36557;53.572;10.170;2023-05-07T08:16:25;5.65;;;4.45;;
50605;SDS011;36557;53.572;10.170;2023-05-07T08:18:52;5.03;;;3.90;;
50605;SDS011;36557;53.572;10.170;2023-05-07T08:21:18;5.80;;;4.13;;
50605;SDS011;36557;53.572;10.170;2023-05-07T08:23:45;6.57;;;3.58;;
50605;SDS011;36557;53.572;10.170;2023-05-07T08:26:11;5.28;;;4.15;;
50605;SDS011;36557;53.572;10.170;2023-05-07T08:28:37;5.35;;;3.78;;
50605;SDS011;36557;53.572;10.170;2023-05-07T08:31:04;5.38;;;3.50;;
50605;SDS011;36557;53.572;10.170;2023-05-07T08:33:30;5.93;;;3.80;;
50605;SDS011;36557;53.572;10.170;2023-05-07T08:35:56;5.50;;;3.80;;
50605;SDS011;36557;53.572;10.170;2023-05-07T08:38:23;5.32;;;3.70;;
50605;SDS011;36557;53.572;10.170;2023-05-07T08:40:49;4.95;;;3.90;;
50605;SDS011;36557;53.572;10.170;2023-05-07T08:43:15;5.30;;;3.40;;
50605;SDS011;36557;53.572;10.170;2023-05-07T08:45:42;5.82;;;4.13;;
50605;SDS011;36557;53.572;10.170;2023-05-07T08:48:12;4.85;;;3.55;;
50605;SDS011;36557;53.572;10.170;2023-05-07T08:50:40;4.05;;;3.15;;
50605;SDS011;36557;53.572;10.170;2023-05-07T08:53:06;5.22;;;3.38;;
50605;SDS011;36557;53.572;10.170;2023-05-07T08:55:32;5.88;;;3.50;;
50605;SDS011;36557;53.572;10.170;2023-05-07T08:57:58;4.75;;;3.38;;
50605;SDS011;36557;53.572;10.170;2023-05-07T09:00:25;4.97;;;3.55;;
50605;SDS011;36557;53.572;10.170;2023-05-07T09:02:52;5.75;;;3.50;;
50605;SDS011;36557;53.572;10.170;2023-05-07T09:05:18;4.82;;;2.95;;
50605;SDS011;36557;53.572;10.170;2023-05-07T09:07:44;4.00;;;3.17;;
50605;SDS011;36557;53.572;10.170;2023-05-07T09:10:11;3.67;;;2.95;;
50605;SDS011;36557;53.572;10.170;2023-05-07T09:12:38;6.68;;;3.50;;
50605;SDS011;36557;53.572;10.170;2023-05-07T09:15:04;4.22;;;3.38;;
50605;SDS011;36557;53.572;10.170;2023-05-07T09:17:30;4.53;;;3.28;;
50605;SDS011;36557;53.572;10.170;2023-05-07T09:20:01;7.15;;;3.40;;
50605;SDS011;36557;53.572;10.170;2023-05-07T09:22:29;3.90;;;3.10;;
50605;SDS011;36557;53.572;10.170;2023-05-07T09:24:56;4.72;;;2.83;;
50605;SDS011;36557;53.572;10.170;2023-05-07T09:27:22;3.80;;;2.80;;
50605;SDS011;36557;53.572;10.170;2023-05-07T09:29:49;4.85;;;3.22;;
50605;SDS011;36557;53.572;10.170;2023-05-07T09:32:15;5.78;;;3.28;;
50605;SDS011;36557;53.572;10.170;2023-05-07T09:34:42;4.00;;;2.97;;
50605;SDS011;36557;53.572;10.170;2023-05-07T09:37:08;4.70;;;3.00;;
50605;SDS011;36557;53.572;10.170;2023-05-07T09:39:41;4.93;;;2.63;;
50605;SDS011;36557;53.572;10.170;2023-05-07T09:42:07;3.78;;;2.90;;
50605;SDS011;36557;53.572;10.170;2023-05-07T09:44:34;5.13;;;3.60;;
50605;SDS011;36557;53.572;10.170;2023-05-07T09:47:00;3.97;;;3.00;;
50605;SDS011;36557;53.572;10.170;2023-05-07T09:49:28;4.75;;;2.85;;
50605;SDS011;36557;53.572;10.170;2023-05-07T09:51:55;5.28;;;3.85;;
50605;SDS011;36557;53.572;10.170;2023-05-07T09:54:24;5.55;;;3.53;;
50605;SDS011;36557;53.572;10.170;2023-05-07T09:56:52;3.65;;;3.22;;
50605;SDS011;36557;53.572;10.170;2023-05-07T09:59:18;4.72;;;3.70;;
50605;SDS011;36557;53.572;10.170;2023-05-07T10:01:44;4.28;;;3.35;;
50605;SDS011;36557;53.572;10.170;2023-05-07T10:04:11;5.68;;;3.30;;
50605;SDS011;36557;53.572;10.170;2023-05-07T10:06:37;4.93;;;3.50;;
50605;SDS011;36557;53.572;10.170;2023-05-07T10:09:04;4.97;;;3.20;;
50605;SDS011;36557;53.572;10.170;2023-05-07T10:11:31;4.28;;;3.13;;
50605;SDS011;36557;53.572;10.170;2023-05-07T10:13:59;5.50;;;3.20;;
50605;SDS011;36557;53.572;10.170;2023-05-07T10:16:27;6.20;;;3.00;;
50605;SDS011;36557;53.572;10.170;2023-05-07T10:18:53;3.97;;;2.75;;
50605;SDS011;36557;53.572;10.170;2023-05-07T10:21:21;4.15;;;2.90;;
50605;SDS011;36557;53.572;10.170;2023-05-07T10:23:55;3.97;;;2.83;;
50605;SDS011;36557;53.572;10.170;2023-05-07T10:28:50;3.75;;;3.08;;
50605;SDS011;36557;53.572;10.170;2023-05-07T10:31:23;7.82;;;3.03;;
50605;SDS011;36557;53.572;10.170;2023-05-07T10:33:55;4.97;;;3.15;;
50605;SDS011;36557;53.572;10.170;2023-05-07T10:36:22;5.00;;;2.75;;
50605;SDS011;36557;53.572;10.170;2023-05-07T10:38:49;3.55;;;3.08;;
50605;SDS011;36557;53.572;10.170;2023-05-07T10:41:15;4.93;;;2.90;;
50605;SDS011;36557;53.572;10.170;2023-05-07T10:43:44;4.60;;;2.80;;
50605;SDS011;36557;53.572;10.170;2023-05-07T10:46:17;3.58;;;2.85;;
50605;SDS011;36557;53.572;10.170;2023-05-07T10:51:33;3.58;;;2.42;;
50605;SDS011;36557;53.572;10.170;2023-05-07T10:56:35;2.60;;;2.40;;
50605;SDS011;36557;53.572;10.170;2023-05-07T11:04:43;2.45;;;2.05;;
50605;SDS011;36557;53.572;10.170;2023-05-07T11:07:16;2.92;;;2.30;;
50605;SDS011;36557;53.572;10.170;2023-05-07T11:15:05;5.78;;;2.38;;
50605;SDS011;36557;53.572;10.170;2023-05-07T11:17:32;2.85;;;2.17;;
50605;SDS011;36557;53.572;10.170;2023-05-07T11:19:59;2.83;;;2.22;;
50605;SDS011;36557;53.572;10.170;2023-05-07T11:25:04;3.63;;;1.95;;
50605;SDS011;36557;53.572;10.170;2023-05-07T11:27:31;2.78;;;2.00;;
50605;SDS011;36557;53.572;10.170;2023-05-07T11:29:57;2.15;;;1.75;;
50605;SDS011;36557;53.572;10.170;2023-05-07T11:32:24;3.78;;;2.15;;
50605;SDS011;36557;53.572;10.170;2023-05-07T11:34:52;3.47;;;2.03;;
50605;SDS011;36557;53.572;10.170;2023-05-07T11:37:21;2.63;;;1.90;;
50605;SDS011;36557;53.572;10.170;2023-05-07T11:39:48;2.60;;;1.90;;
50605;SDS011;36557;53.572;10.170;2023-05-07T11:42:29;3.10;;;2.17;;
50605;SDS011;36557;53.572;10.170;2023-05-07T11:44:56;2.53;;;1.88;;
50605;SDS011;36557;53.572;10.170;2023-05-07T11:47:24;2.58;;;2.10;;
50605;SDS011;36557;53.572;10.170;2023-05-07T11:49:53;5.78;;;2.20;;
50605;SDS011;36557;53.572;10.170;2023-05-07T11:52:20;3.03;;;2.22;;
50605;SDS011;36557;53.572;10.170;2023-05-07T11:54:50;2.60;;;2.38;;
50605;SDS011;36557;53.572;10.170;2023-05-07T11:57:21;4.88;;;2.00;;
50605;SDS011;36557;53.572;10.170;2023-05-07T11:59:53;2.90;;;2.20;;
50605;SDS011;36557;53.572;10.170;2023-05-07T12:02:22;2.53;;;1.98;;
50605;SDS011;36557;53.572;10.170;2023-05-07T12:04:49;3.22;;;2.33;;
50605;SDS011;36557;53.572;10.170;2023-05-07T12:07:16;3.95;;;2.70;;
50605;SDS011;36557;53.572;10.170;2023-05-07T12:09:43;4.85;;;2.65;;
50605;SDS011;36557;53.572;10.170;2023-05-07T12:12:10;7.28;;;4.97;;
50605;SDS011;36557;53.572;10.170;2023-05-07T12:14:42;3.35;;;2.17;;
50605;SDS011;36557;53.572;10.170;2023-05-07T12:17:09;3.17;;;1.70;;
50605;SDS011;36557;53.572;10.170;2023-05-07T12:19:36;4.35;;;1.80;;
50605;SDS011;36557;53.572;10.170;2023-05-07T12:22:04;2.22;;;1.58;;
50605;SDS011;36557;53.572;10.170;2023-05-07T12:24:49;2.90;;;1.50;;
50605;SDS011;36557;53.572;10.170;2023-05-07T12:27:21;2.08;;;1.60;;
50605;SDS011;36557;53.572;10.170;2023-05-07T12:29:48;1.83;;;1.38;;
50605;SDS011;36557;53.572;10.170;2023-05-07T12:32:15;2.85;;;1.52;;
50605;SDS011;36557;53.572;10.170;2023-05-07T12:34:42;2.90;;;1.60;;
50605;SDS011;36557;53.572;10.170;2023-05-07T12:37:08;1.83;;;1.50;;
50605;SDS011;36557;53.572;10.170;2023-05-07T12:39:35;1.90;;;1.48;;
50605;SDS011;36557;53.572;10.170;2023-05-07T12:42:00;2.17;;;1.80;;
50605;SDS011;36557;53.572;10.170;2023-05-07T12:44:31;1.70;;;1.23;;
50605;SDS011;36557;53.572;10.170;2023-05-07T12:46:58;2.35;;;1.40;;
50605;SDS011;36557;53.572;10.170;2023-05-07T12:49:26;2.40;;;1.40;;
50605;SDS011;36557;53.572;10.170;2023-05-07T12:51:53;15.50;;;2.22;;
50605;SDS011;36557;53.572;10.170;2023-05-07T12:54:32;7.70;;;2.13;;
50605;SDS011;36557;53.572;10.170;2023-05-07T12:59:33;3.90;;;1.38;;
50605;SDS011;36557;53.572;10.170;2023-05-07T13:02:02;3.08;;;1.50;;
50605;SDS011;36557;53.572;10.170;2023-05-07T13:04:28;1.90;;;1.50;;
50605;SDS011;36557;53.572;10.170;2023-05-07T13:06:54;2.13;;;1.20;;
50605;SDS011;36557;53.572;10.170;2023-05-07T13:09:20;3.90;;;1.50;;
50605;SDS011;36557;53.572;10.170;2023-05-07T13:11:45;1.80;;;1.60;;
50605;SDS011;36557;53.572;10.170;2023-05-07T13:14:11;2.22;;;1.42;;
50605;SDS011;36557;53.572;10.170;2023-05-07T13:16:37;2.28;;;1.50;;
50605;SDS011;36557;53.572;10.170;2023-05-07T13:19:03;4.30;;;1.33;;
50605;SDS011;36557;53.572;10.170;2023-05-07T13:21:29;2.72;;;1.35;;
50605;SDS011;36557;53.572;10.170;2023-05-07T13:23:58;3.08;;;1.27;;
50605;SDS011;36557;53.572;10.170;2023-05-07T13:26:24;3.13;;;1.63;;
50605;SDS011;36557;53.572;10.170;2023-05-07T13:28:50;2.20;;;1.05;;
50605;SDS011;36557;53.572;10.170;2023-05-07T13:31:17;2.00;;;1.60;;
50605;SDS011;36557;53.572;10.170;2023-05-07T13:33:43;3.75;;;1.30;;
50605;SDS011;36557;53.572;10.170;2023-05-07T13:36:08;2.20;;;1.70;;
50605;SDS011;36557;53.572;10.170;2023-05-07T13:38:34;3.65;;;2.17;;
50605;SDS011;36557;53.572;10.170;2023-05-07T13:41:00;2.85;;;1.30;;
50605;SDS011;36557;53.572;10.170;2023-05-07T13:43:26;2.85;;;1.45;;
50605;SDS011;36557;53.572;10.170;2023-05-07T13:45:52;1.70;;;1.35;;
50605;SDS011;36557;53.572;10.170;2023-05-07T13:48:17;1.83;;;1.30;;
50605;SDS011;36557;53.572;10.170;2023-05-07T13:50:43;2.05;;;1.35;;
50605;SDS011;36557;53.572;10.170;2023-05-07T13:53:09;3.22;;;1.42;;
50605;SDS011;36557;53.572;10.170;2023-05-07T13:55:35;2.33;;;1.30;;
50605;SDS011;36557;53.572;10.170;2023-05-07T13:58:01;2.35;;;1.10;;
50605;SDS011;36557;53.572;10.170;2023-05-07T14:00:28;2.45;;;1.92;;
50605;SDS011;36557;53.572;10.170;2023-05-07T14:02:54;2.25;;;1.58;;
50605;SDS011;36557;53.572;10.170;2023-05-07T14:05:21;1.77;;;1.10;;
50605;SDS011;36557;53.572;10.170;2023-05-07T14:07:50;2.10;;;1.40;;
50605;SDS011;36557;53.572;10.170;2023-05-07T14:10:17;1.67;;;1.35;;
50605;SDS011;36557;53.572;10.170;2023-05-07T14:12:44;1.73;;;1.10;;
50605;SDS011;36557;53.572;10.170;2023-05-07T14:15:10;3.92;;;1.10;;
50605;SDS011;36557;53.572;10.170;2023-05-07T14:17:36;2.45;;;1.42;;
50605;SDS011;36557;53.572;10.170;2023-05-07T14:20:02;4.68;;;2.55;;
50605;SDS011;36557;53.572;10.170;2023-05-07T14:22:28;2.03;;;1.50;;
50605;SDS011;36557;53.572;10.170;2023-05-07T14:24:54;2.25;;;1.73;;
50605;SDS011;36557;53.572;10.170;2023-05-07T14:27:20;2.95;;;1.35;;
50605;SDS011;36557;53.572;10.170;2023-05-07T14:29:46;2.85;;;1.67;;
50605;SDS011;36557;53.572;10.170;2023-05-07T14:32:16;2.50;;;1.20;;
50605;SDS011;36557;53.572;10.170;2023-05-07T14:34:43;2.58;;;1.52;;
50605;SDS011;36557;53.572;10.170;2023-05-07T14:37:09;2.60;;;1.25;;
50605;SDS011;36557;53.572;10.170;2023-05-07T14:39:35;4.43;;;1.55;;
50605;SDS011;36557;53.572;10.170;2023-05-07T14:42:01;4.20;;;1.30;;
50605;SDS011;36557;53.572;10.170;2023-05-07T14:44:27;1.80;;;1.30;;
50605;SDS011;36557;53.572;10.170;2023-05-07T14:46:52;2.50;;;1.35;;
50605;SDS011;36557;53.572;10.170;2023-05-07T14:49:18;1.67;;;1.50;;
50605;SDS011;36557;53.572;10.170;2023-05-07T14:51:45;2.10;;;1.40;;
50605;SDS011;36557;53.572;10.170;2023-05-07T14:54:12;1.77;;;1.42;;
50605;SDS011;36557;53.572;10.170;2023-05-07T14:56:38;1.63;;;1.15;;
50605;SDS011;36557;53.572;10.170;2023-05-07T14:59:04;2.90;;;1.77;;